Time;durP1;ratioP1;P1;durP2;ratioP2;P2;SDS_P1;SDS_P2;PMS_P1;PMS_P2;Temp;Humidity;BMP_temperature;BMP_pressure;BME280_temperature;BME280_humidity;BME280_pressure;Samples;Min_cycle;Max_cycle;Signal;HPM_P1;HPM_P2
2023/08/01 00:00:59;;;;;;;3.20;2.60;;;21.90;99.90;;;;;;5110342;28;21023;-71
2023/08/01 00:03:26;;;;;;;6.00;2.40;;;21.90;99.90;;;;;;5111001;28;20236;-70
2023/08/01 00:05:54;;;;;;;4.38;3.47;;;21.80;99.90;;;;;;5110312;28;20594;-70
2023/08/01 00:08:23;;;;;;;3.03;2.53;;;21.80;99.90;;;;;;5111350;28;20204;-71
2023/08/01 00:10:50;;;;;;;3.53;3.22;;;21.70;99.90;;;;;;5110971;28;20633;-71
2023/08/01 00:13:16;;;;;;;2.97;2.67;;;21.60;99.90;;;;;;5110827;28;20683;-70
2023/08/01 00:15:43;;;;;;;4.15;2.70;;;21.60;99.90;;;;;;5110630;28;20268;-70
2023/08/01 00:18:10;;;;;;;4.53;3.20;;;21.50;99.90;;;;;;5110754;28;20240;-71
2023/08/01 00:20:39;;;;;;;3.05;2.70;;;21.50;99.90;;;;;;5110580;28;20240;-76
2023/08/01 00:23:06;;;;;;;3.63;2.55;;;21.50;99.90;;;;;;5111260;28;20205;-76
2023/08/01 00:25:34;;;;;;;3.63;3.33;;;21.50;99.90;;;;;;5113109;28;20232;-71
2023/08/01 00:28:01;;;;;;;3.42;2.72;;;21.40;99.90;;;;;;5115094;27;20235;-70
2023/08/01 00:30:28;;;;;;;2.67;2.47;;;21.30;99.90;;;;;;5115022;28;20663;-70
2023/08/01 00:32:55;;;;;;;4.18;2.83;;;21.30;99.90;;;;;;5114577;28;20240;-72
2023/08/01 00:35:22;;;;;;;4.90;2.70;;;21.20;99.90;;;;;;5114571;28;20676;-73
2023/08/01 00:37:49;;;;;;;4.05;3.47;;;21.20;99.90;;;;;;5114581;28;20244;-78
2023/08/01 00:40:17;;;;;;;4.43;3.67;;;21.20;99.90;;;;;;5115193;28;20236;-70
2023/08/01 00:42:45;;;;;;;4.35;3.45;;;21.20;99.90;;;;;;5114589;28;20205;-73
2023/08/01 00:45:12;;;;;;;4.57;3.88;;;21.10;99.90;;;;;;5114851;28;20200;-70
2023/08/01 00:47:40;;;;;;;5.00;3.85;;;21.10;99.90;;;;;;5114750;28;20207;-71
2023/08/01 00:50:08;;;;;;;7.20;4.60;;;21.10;99.90;;;;;;5114920;28;20232;-71
2023/08/01 00:52:35;;;;;;;5.10;4.45;;;21.10;99.90;;;;;;5114918;28;20213;-70
2023/08/01 00:55:02;;;;;;;6.03;5.43;;;21.10;99.90;;;;;;5114243;28;20644;-78
2023/08/01 00:57:29;;;;;;;9.73;8.73;;;20.90;99.90;;;;;;5114471;28;20645;-78
2023/08/01 01:00:33;;;;;;;12.05;9.35;;;21.00;99.90;;;;;;5114145;28;20684;-71
2023/08/01 01:03:02;;;;;;;10.95;7.75;;;21.00;99.90;;;;;;5113867;28;20205;-72
2023/08/01 01:05:36;;;;;;;9.20;7.15;;;20.90;99.90;;;;;;5114278;28;20216;-73
2023/08/01 01:08:04;;;;;;;7.68;6.97;;;20.80;99.90;;;;;;5113985;28;20237;-80
2023/08/01 01:10:31;;;;;;;6.80;6.10;;;20.80;99.90;;;;;;5114223;27;20196;-74
2023/08/01 01:12:58;;;;;;;8.43;7.07;;;20.80;99.90;;;;;;5113921;28;20208;-72
2023/08/01 01:15:25;;;;;;;7.20;6.07;;;20.70;99.90;;;;;;5113782;28;20719;-78
2023/08/01 01:17:53;;;;;;;7.55;5.50;;;20.70;99.90;;;;;;5113866;27;20635;-72
2023/08/01 01:20:23;;;;;;;6.25;4.57;;;20.70;99.90;;;;;;5113992;28;20236;-71
2023/08/01 01:22:53;;;;;;;4.25;3.70;;;20.60;99.90;;;;;;5113773;28;20289;-77
2023/08/01 01:25:21;;;;;;;3.42;3.13;;;20.60;99.90;;;;;;5114385;28;20693;-77
2023/08/01 01:27:50;;;;;;;5.32;3.92;;;20.60;99.90;;;;;;5113475;28;20241;-77
2023/08/01 01:30:18;;;;;;;5.22;3.75;;;20.60;99.90;;;;;;5113948;28;20204;-73
2023/08/01 01:32:45;;;;;;;7.80;3.70;;;20.50;99.90;;;;;;5113519;27;20678;-75
2023/08/01 01:35:12;;;;;;;4.13;3.65;;;20.40;99.90;;;;;;5113635;28;20646;-75
2023/08/01 01:37:39;;;;;;;6.00;3.90;;;20.50;99.90;;;;;;5112716;28;20237;-73
2023/08/01 01:40:09;;;;;;;5.15;3.70;;;20.40;99.90;;;;;;5113605;28;20679;-75
2023/08/01 01:42:36;;;;;;;5.95;3.45;;;20.50;99.90;;;;;;5113738;28;20233;-74
2023/08/01 01:45:03;;;;;;;4.65;3.58;;;20.40;99.90;;;;;;5113608;28;20204;-80
2023/08/01 01:47:30;;;;;;;4.28;3.88;;;20.50;99.90;;;;;;5113355;27;20244;-72
2023/08/01 01:49:57;;;;;;;4.78;3.05;;;20.50;99.90;;;;;;5113071;28;20236;-72
2023/08/01 01:52:23;;;;;;;5.00;3.80;;;20.50;99.90;;;;;;5113407;28;20244;-79
2023/08/01 01:54:50;;;;;;;6.28;4.68;;;20.50;99.90;;;;;;5112948;28;20264;-73
2023/08/01 01:57:19;;;;;;;4.45;4.05;;;20.50;99.90;;;;;;5112886;28;20240;-71
2023/08/01 01:59:45;;;;;;;4.80;3.92;;;20.40;99.90;;;;;;5112699;28;20768;-72
2023/08/01 02:02:12;;;;;;;4.35;3.95;;;20.40;99.90;;;;;;5113012;28;20699;-72
2023/08/01 02:04:39;;;;;;;5.97;4.32;;;20.50;99.90;;;;;;5113136;28;20255;-73
2023/08/01 02:07:07;;;;;;;5.22;4.65;;;20.60;99.90;;;;;;5113031;28;20236;-79
2023/08/01 02:09:33;;;;;;;4.38;3.95;;;20.50;99.90;;;;;;5113602;28;20262;-79
2023/08/01 02:12:00;;;;;;;4.32;3.92;;;20.60;99.90;;;;;;5112433;28;20240;-72
2023/08/01 02:14:28;;;;;;;7.70;4.40;;;20.50;99.90;;;;;;5112864;28;20240;-72
2023/08/01 02:16:55;;;;;;;5.40;3.75;;;20.50;99.90;;;;;;5112281;28;20244;-71
2023/08/01 02:19:22;;;;;;;5.47;3.60;;;20.60;99.90;;;;;;5112918;27;20236;-72
2023/08/01 02:21:49;;;;;;;4.85;4.10;;;20.70;99.90;;;;;;5112335;28;20236;-77
2023/08/01 02:24:16;;;;;;;4.00;3.70;;;20.50;99.90;;;;;;5105818;28;20234;-78
2023/08/01 02:26:43;;;;;;;3.92;3.53;;;20.50;99.90;;;;;;5100023;27;20244;-72
2023/08/01 02:29:10;;;;;;;4.65;4.25;;;20.40;99.90;;;;;;5092301;28;20708;-79
2023/08/01 02:31:38;;;;;;;5.45;3.60;;;20.50;99.90;;;;;;5112375;28;20305;-72
2023/08/01 02:34:05;;;;;;;4.50;3.88;;;20.50;99.90;;;;;;5107917;28;20240;-80
2023/08/01 02:36:32;;;;;;;4.55;4.15;;;20.60;99.90;;;;;;5112883;28;20329;-79
2023/08/01 02:38:59;;;;;;;4.97;4.30;;;20.70;99.90;;;;;;5111815;28;20266;-73
2023/08/01 02:41:26;;;;;;;3.75;3.45;;;20.80;99.90;;;;;;5111168;28;20212;-72
2023/08/01 02:43:53;;;;;;;4.97;4.50;;;20.80;99.90;;;;;;5091741;28;20241;-80
2023/08/01 02:46:19;;;;;;;5.00;4.03;;;20.80;99.90;;;;;;5092157;28;20248;-75
2023/08/01 02:48:48;;;;;;;5.38;3.80;;;20.80;99.90;;;;;;5091618;28;20244;-72
2023/08/01 02:51:15;;;;;;;4.97;4.28;;;21.00;99.90;;;;;;5108549;28;20637;-72
2023/08/01 02:53:41;;;;;;;5.35;4.35;;;20.90;99.90;;;;;;5112139;28;20197;-72
2023/08/01 02:56:10;;;;;;;8.05;4.47;;;21.00;99.90;;;;;;5112493;28;20280;-80
2023/08/01 02:58:37;;;;;;;5.45;3.78;;;21.00;99.90;;;;;;5109761;28;20201;-72
2023/08/01 03:01:09;;;;;;;5.68;4.65;;;21.00;99.90;;;;;;5091029;28;20270;-72
2023/08/01 03:03:36;;;;;;;4.90;3.95;;;21.00;99.90;;;;;;5094752;28;20216;-73
2023/08/01 03:06:04;;;;;;;8.35;5.55;;;21.00;99.90;;;;;;5111745;28;20209;-72
2023/08/01 03:08:31;;;;;;;5.43;3.92;;;21.00;99.90;;;;;;5111994;28;20251;-72
2023/08/01 03:10:59;;;;;;;4.30;3.78;;;21.00;99.90;;;;;;5111712;28;20268;-79
2023/08/01 03:13:26;;;;;;;7.22;5.10;;;21.00;99.90;;;;;;5111783;28;20240;-72
2023/08/01 03:15:53;;;;;;;4.60;4.20;;;20.80;99.90;;;;;;5111244;28;20268;-80
2023/08/01 03:18:19;;;;;;;8.27;4.47;;;20.80;99.90;;;;;;5112012;28;20236;-72
2023/08/01 03:20:46;;;;;;;5.18;4.30;;;20.90;99.90;;;;;;5111182;28;20679;-72
2023/08/01 03:23:15;;;;;;;5.25;4.38;;;21.00;99.90;;;;;;5111812;28;20240;-80
2023/08/01 03:25:41;;;;;;;4.93;4.18;;;21.00;99.90;;;;;;5111517;28;20240;-73
2023/08/01 03:28:09;;;;;;;5.40;3.90;;;21.00;99.90;;;;;;5111605;28;20674;-72
2023/08/01 03:30:36;;;;;;;6.57;4.60;;;21.00;99.90;;;;;;5111965;28;20201;-72
2023/08/01 03:33:04;;;;;;;7.22;4.43;;;21.10;99.90;;;;;;5106026;28;20278;-80
2023/08/01 03:35:31;;;;;;;5.28;4.63;;;21.10;99.90;;;;;;5101011;28;20290;-80
2023/08/01 03:37:58;;;;;;;5.05;4.53;;;21.10;99.90;;;;;;5110993;28;20676;-79
2023/08/01 03:40:26;;;;;;;4.75;4.35;;;21.00;99.90;;;;;;5111468;28;20701;-71
2023/08/01 03:42:53;;;;;;;6.00;4.70;;;21.00;99.90;;;;;;5110764;28;20244;-71
2023/08/01 03:45:20;;;;;;;4.93;4.45;;;21.00;99.90;;;;;;5111176;28;20761;-71
2023/08/01 03:47:47;;;;;;;5.22;4.53;;;21.00;99.90;;;;;;5111290;28;20243;-73
2023/08/01 03:50:14;;;;;;;4.85;4.32;;;21.00;99.90;;;;;;5111139;28;20244;-80
2023/08/01 03:52:41;;;;;;;5.45;4.93;;;21.00;99.90;;;;;;5111299;28;20284;-72
2023/08/01 03:55:09;;;;;;;5.85;4.22;;;21.10;99.90;;;;;;5111270;28;20314;-80
2023/08/01 03:57:38;;;;;;;4.95;4.07;;;21.00;99.90;;;;;;5083550;28;20197;-79
2023/08/01 04:00:13;;;;;;;4.78;4.38;;;21.00;99.90;;;;;;5110813;28;20270;-80
2023/08/01 04:02:40;;;;;;;6.57;5.03;;;20.80;99.90;;;;;;5110923;28;20211;-76
2023/08/01 04:05:08;;;;;;;5.18;4.68;;;20.90;99.90;;;;;;5111374;28;20293;-73
2023/08/01 04:07:35;;;;;;;4.18;3.78;;;20.90;99.90;;;;;;5111133;28;20274;-80
2023/08/01 04:10:02;;;;;;;4.70;4.20;;;20.90;99.90;;;;;;5110853;28;20226;-73
2023/08/01 04:12:30;;;;;;;7.70;4.13;;;20.90;99.90;;;;;;5110550;28;20656;-79
2023/08/01 04:14:58;;;;;;;5.50;4.18;;;20.90;99.90;;;;;;5110635;28;20236;-76
2023/08/01 04:17:25;;;;;;;4.50;4.15;;;20.90;99.90;;;;;;5110937;28;20247;-73
2023/08/01 04:19:51;;;;;;;4.78;4.35;;;20.80;99.90;;;;;;5110548;28;20247;-78
2023/08/01 04:22:18;;;;;;;6.53;4.18;;;20.70;99.90;;;;;;5110777;28;20655;-79
2023/08/01 04:24:45;;;;;;;4.35;3.92;;;20.70;99.90;;;;;;5110906;28;20259;-79
2023/08/01 04:27:12;;;;;;;5.72;4.47;;;20.80;99.90;;;;;;5110840;28;20313;-79
2023/08/01 04:29:39;;;;;;;9.38;4.47;;;20.80;99.90;;;;;;5110853;28;20228;-74
2023/08/01 04:32:08;;;;;;;4.88;4.28;;;20.80;99.90;;;;;;5110794;28;20293;-80
2023/08/01 04:34:35;;;;;;;6.22;4.53;;;20.80;99.90;;;;;;5093056;28;20253;-76
2023/08/01 04:37:02;;;;;;;4.75;4.35;;;20.70;99.90;;;;;;5090241;28;20279;-76
2023/08/01 04:39:29;;;;;;;5.38;4.68;;;20.70;99.90;;;;;;5090134;28;20703;-79
2023/08/01 04:41:56;;;;;;;4.50;4.10;;;20.70;99.90;;;;;;5094566;28;20247;-79
2023/08/01 04:44:23;;;;;;;7.13;5.00;;;20.60;99.90;;;;;;5110625;28;20720;-80
2023/08/01 04:46:50;;;;;;;6.90;4.53;;;20.50;99.90;;;;;;5110383;28;20205;-79
2023/08/01 04:49:18;;;;;;;6.72;3.90;;;20.40;99.90;;;;;;5110440;28;20240;-75
2023/08/01 04:51:45;;;;;;;5.55;4.47;;;20.40;99.90;;;;;;5110357;28;20236;-72
2023/08/01 04:54:12;;;;;;;3.88;3.33;;;20.40;99.90;;;;;;5110663;28;20244;-74
2023/08/01 04:56:39;;;;;;;6.65;4.15;;;20.40;99.90;;;;;;5110257;28;20225;-77
2023/08/01 04:59:06;;;;;;;6.10;4.55;;;20.30;99.90;;;;;;5110928;28;20205;-80
2023/08/01 05:01:33;;;;;;;5.25;3.75;;;20.30;99.90;;;;;;5110052;28;20251;-79
2023/08/01 05:04:00;;;;;;;6.22;4.13;;;20.40;99.90;;;;;;5109998;28;20266;-78
2023/08/01 05:06:28;;;;;;;4.68;4.15;;;20.40;99.90;;;;;;5110475;28;20294;-74
2023/08/01 05:08:55;;;;;;;6.25;4.63;;;20.40;99.90;;;;;;5110341;28;20248;-79
2023/08/01 05:11:22;;;;;;;4.43;3.75;;;20.40;99.90;;;;;;5110297;28;20236;-80
2023/08/01 05:13:49;;;;;;;6.88;4.72;;;20.40;99.90;;;;;;5113658;28;20237;-78
2023/08/01 05:16:16;;;;;;;5.80;4.72;;;20.40;99.90;;;;;;5114118;28;20264;-79
2023/08/01 05:18:43;;;;;;;3.47;3.17;;;20.40;99.90;;;;;;5113486;28;20266;-79
2023/08/01 05:21:10;;;;;;;6.43;4.20;;;20.40;99.90;;;;;;5114389;28;20243;-78
2023/08/01 05:23:38;;;;;;;4.78;4.10;;;20.40;99.90;;;;;;5114110;28;20233;-79
2023/08/01 05:26:05;;;;;;;7.72;4.60;;;20.50;99.90;;;;;;5113935;28;20236;-80
2023/08/01 05:28:32;;;;;;;5.35;4.63;;;20.50;99.90;;;;;;5113968;28;20200;-80
2023/08/01 05:30:59;;;;;;;5.20;4.70;;;20.30;99.90;;;;;;5113473;28;20336;-79
2023/08/01 05:33:26;;;;;;;5.80;5.13;;;20.40;99.90;;;;;;5105653;28;20237;-80
2023/08/01 05:35:53;;;;;;;4.80;4.38;;;20.60;99.90;;;;;;5092910;28;20260;-72
2023/08/01 05:38:20;;;;;;;5.07;4.55;;;20.60;99.90;;;;;;5093435;28;20677;-79
2023/08/01 05:40:48;;;;;;;6.55;4.95;;;20.60;99.90;;;;;;5092669;28;20616;-80
2023/08/01 05:43:15;;;;;;;5.28;4.57;;;20.60;99.90;;;;;;5093290;28;20212;-79
2023/08/01 05:45:42;;;;;;;9.20;5.70;;;20.70;99.90;;;;;;5092989;28;20236;-71
2023/08/01 05:48:09;;;;;;;7.65;5.03;;;20.70;99.90;;;;;;5093156;28;20240;-75
2023/08/01 05:50:36;;;;;;;5.80;4.55;;;20.70;99.90;;;;;;5093623;28;20241;-80
2023/08/01 05:53:03;;;;;;;8.07;5.70;;;20.70;99.90;;;;;;5092658;28;20252;-79
2023/08/01 05:55:29;;;;;;;5.80;4.70;;;20.70;99.90;;;;;;5092890;28;20595;-80
2023/08/01 05:57:58;;;;;;;5.03;4.63;;;20.80;99.90;;;;;;5092492;28;20274;-75
2023/08/01 06:00:25;;;;;;;9.10;5.18;;;20.80;99.90;;;;;;5092908;28;20213;-71
2023/08/01 06:02:51;;;;;;;7.65;5.88;;;20.80;99.90;;;;;;5092596;28;20233;-80
2023/08/01 06:05:18;;;;;;;6.30;4.32;;;20.80;99.90;;;;;;5092855;28;20302;-80
2023/08/01 06:07:45;;;;;;;6.60;4.68;;;20.90;99.90;;;;;;5092506;28;20205;-80
2023/08/01 06:10:12;;;;;;;4.80;4.30;;;20.80;99.90;;;;;;5092500;28;20263;-74
2023/08/01 06:12:39;;;;;;;8.13;5.05;;;20.80;99.90;;;;;;5092702;28;20294;-71
2023/08/01 06:15:08;;;;;;;6.10;4.50;;;20.80;99.90;;;;;;5092324;28;20236;-79
2023/08/01 06:17:35;;;;;;;5.63;4.85;;;20.90;99.90;;;;;;5093005;28;20264;-80
2023/08/01 06:20:04;;;;;;;7.03;4.85;;;21.10;99.90;;;;;;5092268;28;20704;-78
2023/08/01 06:22:31;;;;;;;5.28;4.18;;;21.20;99.90;;;;;;5078174;28;20206;-76
2023/08/01 06:24:58;;;;;;;4.85;4.13;;;21.20;99.90;;;;;;5091881;28;20233;-80
2023/08/01 06:27:25;;;;;;;6.75;4.20;;;21.30;99.90;;;;;;5092210;28;20248;-80
2023/08/01 06:29:52;;;;;;;7.00;4.65;;;21.20;99.90;;;;;;5092141;28;20676;-80
2023/08/01 06:32:20;;;;;;;4.15;3.40;;;21.20;99.90;;;;;;5092362;28;20237;-74
2023/08/01 06:34:47;;;;;;;6.80;4.30;;;21.10;99.90;;;;;;5091818;28;20206;-79
2023/08/01 06:37:14;;;;;;;5.82;4.55;;;21.10;99.90;;;;;;5091849;28;20708;-79
2023/08/01 06:39:41;;;;;;;5.43;4.80;;;21.40;99.90;;;;;;5092194;28;20247;-78
2023/08/01 06:42:08;;;;;;;7.03;4.60;;;21.60;99.90;;;;;;5092385;28;20210;-80
2023/08/01 06:44:35;;;;;;;10.82;5.00;;;21.70;99.90;;;;;;5092437;28;20205;-77
2023/08/01 06:47:02;;;;;;;6.18;4.70;;;21.80;99.90;;;;;;5091735;28;20213;-80
2023/08/01 06:49:30;;;;;;;6.47;4.70;;;21.80;99.90;;;;;;5091960;28;20243;-71
2023/08/01 06:51:57;;;;;;;8.25;4.88;;;21.80;99.90;;;;;;5091501;28;20237;-76
2023/08/01 06:54:24;;;;;;;4.72;3.92;;;21.80;99.90;;;;;;5091917;28;20248;-72
2023/08/01 06:56:50;;;;;;;7.00;4.45;;;21.80;99.90;;;;;;5091310;28;20264;-74
2023/08/01 06:59:17;;;;;;;5.03;4.03;;;22.00;99.90;;;;;;5092069;28;20236;-74
2023/08/01 07:01:44;;;;;;;4.25;3.42;;;22.10;99.90;;;;;;5091055;28;20263;-75
2023/08/01 07:04:12;;;;;;;4.90;3.90;;;22.90;99.90;;;;;;5091744;28;20681;-76
2023/08/01 07:06:41;;;;;;;3.63;3.25;;;23.40;99.90;;;;;;5091336;28;20233;-71
2023/08/01 07:09:08;;;;;;;6.20;3.92;;;23.30;99.90;;;;;;5091926;28;20205;-76
2023/08/01 07:11:35;;;;;;;9.05;4.70;;;22.90;99.90;;;;;;5091733;28;20263;-70
2023/08/01 07:14:01;;;;;;;5.03;4.18;;;22.70;99.90;;;;;;5091204;28;20256;-71
2023/08/01 07:16:28;;;;;;;5.10;3.80;;;22.60;99.90;;;;;;5091601;28;20269;-71
2023/08/01 07:18:56;;;;;;;4.60;3.40;;;22.60;99.90;;;;;;5102504;28;20259;-71
2023/08/01 07:21:23;;;;;;;6.47;3.92;;;22.70;99.90;;;;;;5111275;28;20232;-72
2023/08/01 07:23:51;;;;;;;5.32;3.75;;;22.80;99.90;;;;;;5111597;28;20232;-71
2023/08/01 07:26:18;;;;;;;4.20;3.80;;;23.40;99.90;;;;;;5111464;28;20259;-76
2023/08/01 07:28:45;;;;;;;4.82;3.83;;;23.30;99.90;;;;;;5111386;28;20236;-71
2023/08/01 07:31:12;;;;;;;7.28;4.32;;;23.20;99.90;;;;;;5111553;27;20236;-71
2023/08/01 07:33:39;;;;;;;3.75;3.42;;;23.00;99.90;;;;;;5102546;28;20237;-70
2023/08/01 07:36:06;;;;;;;5.28;3.63;;;23.00;99.90;;;;;;5100850;28;20639;-76
2023/08/01 07:38:33;;;;;;;4.53;3.63;;;22.80;99.90;;;;;;5096829;28;20228;-75
2023/08/01 07:41:05;;;;;;;4.93;3.08;;;22.60;99.90;;;;;;5101608;28;20209;-75
2023/08/01 07:43:32;;;;;;;4.95;3.90;;;22.50;99.90;;;;;;5090776;28;20248;-75
2023/08/01 07:45:59;;;;;;;4.28;3.08;;;22.60;99.90;;;;;;5090523;28;20237;-71
2023/08/01 07:48:26;;;;;;;7.43;3.58;;;22.60;99.90;;;;;;5104665;28;20270;-71
2023/08/01 07:50:53;;;;;;;5.20;3.50;;;22.80;99.90;;;;;;5090539;28;20232;-75
2023/08/01 07:53:20;;;;;;;5.63;4.32;;;22.90;99.90;;;;;;5090807;28;20245;-72
2023/08/01 07:55:47;;;;;;;5.70;3.47;;;22.90;99.90;;;;;;5100622;28;20243;-78
2023/08/01 07:58:16;;;;;;;3.72;3.17;;;23.00;99.90;;;;;;5111087;28;20232;-77
2023/08/01 08:00:43;;;;;;;4.90;3.90;;;23.00;99.90;;;;;;5110735;28;20244;-74
2023/08/01 08:03:10;;;;;;;3.80;3.17;;;23.00;99.90;;;;;;5110521;28;20236;-73
2023/08/01 08:05:38;;;;;;;3.50;2.85;;;23.10;99.90;;;;;;5110849;28;20672;-76
2023/08/01 08:08:05;;;;;;;4.38;3.90;;;23.20;99.90;;;;;;5110048;28;20269;-78
2023/08/01 08:10:32;;;;;;;3.83;3.40;;;23.20;99.90;;;;;;5111056;28;20209;-78
2023/08/01 08:12:59;;;;;;;6.25;3.53;;;23.30;99.90;;;;;;5110665;28;20728;-78
2023/08/01 08:15:30;;;;;;;4.85;4.32;;;23.40;99.90;;;;;;5110924;28;20236;-72
2023/08/01 08:17:57;;;;;;;5.57;3.83;;;23.30;99.90;;;;;;5110610;28;20318;-78
2023/08/01 08:20:24;;;;;;;5.80;3.20;;;23.20;99.90;;;;;;5110691;28;20236;-78
2023/08/01 08:22:51;;;;;;;6.70;3.78;;;23.10;99.90;;;;;;5110642;28;20269;-75
2023/08/01 08:25:18;;;;;;;4.10;3.00;;;23.00;99.90;;;;;;5110831;28;20278;-78
2023/08/01 08:27:45;;;;;;;4.50;3.10;;;23.00;99.90;;;;;;5110691;28;20232;-79
2023/08/01 08:30:12;;;;;;;3.15;2.83;;;22.90;99.90;;;;;;5110637;28;20236;-76
2023/08/01 08:32:40;;;;;;;4.75;3.05;;;22.80;99.90;;;;;;5109492;28;20237;-72
2023/08/01 08:35:07;;;;;;;3.90;2.53;;;22.70;99.90;;;;;;5082848;28;20201;-78
2023/08/01 08:37:36;;;;;;;6.32;2.97;;;22.80;99.90;;;;;;5090383;28;20715;-76
2023/08/01 08:40:03;;;;;;;2.88;2.67;;;22.90;99.90;;;;;;5089987;28;20639;-78
2023/08/01 08:42:30;;;;;;;6.15;3.33;;;23.10;99.90;;;;;;5090333;28;20210;-78
2023/08/01 08:45:00;;;;;;;3.58;3.28;;;23.10;99.90;;;;;;5089558;28;20237;-78
2023/08/01 08:47:28;;;;;;;5.70;2.83;;;23.10;99.90;;;;;;5109202;28;20238;-78
2023/08/01 08:49:57;;;;;;;3.67;2.72;;;23.10;99.90;;;;;;5114462;28;20244;-72
2023/08/01 08:52:25;;;;;;;4.25;2.95;;;23.10;99.90;;;;;;5114840;27;20200;-78
2023/08/01 08:54:52;;;;;;;3.13;2.35;;;23.20;99.90;;;;;;5114319;28;20628;-73
2023/08/01 08:57:21;;;;;;;6.32;2.40;;;23.40;99.90;;;;;;5114517;27;20277;-78
2023/08/01 08:59:48;;;;;;;3.20;2.10;;;23.60;99.90;;;;;;5114024;27;20243;-76
2023/08/01 09:02:16;;;;;;;3.88;2.30;;;23.80;99.90;;;;;;5113968;28;20241;-72
2023/08/01 09:04:43;;;;;;;7.20;2.72;;;23.90;99.90;;;;;;5114026;28;20213;-73
2023/08/01 09:07:14;;;;;;;3.80;2.53;;;24.10;99.90;;;;;;5114314;28;20237;-76
2023/08/01 09:09:41;;;;;;;2.60;2.40;;;24.20;99.90;;;;;;5114255;28;20244;-76
2023/08/01 09:12:10;;;;;;;3.53;1.98;;;24.40;99.90;;;;;;5112182;28;20262;-77
2023/08/01 09:14:37;;;;;;;3.28;2.58;;;24.40;99.90;;;;;;5097759;28;20236;-73
2023/08/01 09:17:08;;;;;;;2.60;2.40;;;24.50;99.90;;;;;;5113723;28;20297;-77
2023/08/01 09:19:35;;;;;;;3.47;2.45;;;24.80;99.90;;;;;;5114801;28;20292;-79
2023/08/01 09:22:02;;;;;;;4.38;2.80;;;24.90;99.90;;;;;;5113709;28;20271;-72
2023/08/01 09:24:30;;;;;;;2.38;2.17;;;24.80;99.90;;;;;;5113922;28;20235;-72
2023/08/01 09:27:05;;;;;;;3.20;2.10;;;24.70;99.90;;;;;;5113972;28;20341;-73
2023/08/01 09:29:32;;;;;;;3.22;2.70;;;24.60;99.90;;;;;;5113928;27;20214;-73
2023/08/01 09:31:59;;;;;;;2.45;2.25;;;24.70;99.90;;;;;;5113423;28;20208;-76
2023/08/01 09:34:27;;;;;;;2.55;2.17;;;24.90;99.90;;;;;;5104235;28;20237;-77
2023/08/01 09:36:59;;;;;;;3.05;2.08;;;25.10;99.90;;;;;;5113261;28;20241;-73
2023/08/01 09:39:27;;;;;;;2.25;2.00;;;25.10;99.90;;;;;;5113884;28;20246;-72
2023/08/01 09:41:59;;;;;;;2.45;1.92;;;25.20;99.90;;;;;;5113670;28;20232;-73
2023/08/01 09:44:28;;;;;;;2.40;2.03;;;25.20;99.90;;;;;;5113551;28;20231;-73
2023/08/01 09:46:59;;;;;;;5.05;2.20;;;25.30;99.90;;;;;;5112805;27;20244;-73
2023/08/01 09:49:26;;;;;;;2.72;2.53;;;25.20;99.90;;;;;;5113440;28;20248;-77
2023/08/01 09:51:53;;;;;;;3.80;1.88;;;25.30;99.90;;;;;;5112990;28;20695;-76
2023/08/01 09:54:21;;;;;;;2.95;2.13;;;25.20;99.90;;;;;;5113476;28;20247;-76
2023/08/01 09:56:56;;;;;;;2.03;1.60;;;25.30;99.90;;;;;;5113072;28;20708;-74
2023/08/01 09:59:26;;;;;;;3.28;1.70;;;25.50;99.90;;;;;;5112656;28;20277;-73
2023/08/01 10:01:54;;;;;;;1.73;1.30;;;25.70;99.90;;;;;;5112336;28;20730;-74
2023/08/01 10:04:24;;;;;;;3.00;1.92;;;25.90;99.90;;;;;;5113415;28;20683;-71
2023/08/01 10:06:55;;;;;;;4.00;1.90;;;26.10;99.90;;;;;;5113147;28;20247;-71
2023/08/01 10:09:23;;;;;;;2.00;1.60;;;26.50;99.90;;;;;;5113415;28;20205;-74
2023/08/01 10:11:51;;;;;;;2.22;2.03;;;26.30;99.90;;;;;;5112864;28;20676;-71
2023/08/01 10:14:18;;;;;;;2.58;1.83;;;26.20;99.90;;;;;;5112971;28;20623;-70
2023/08/01 10:16:47;;;;;;;1.65;1.50;;;26.10;99.90;;;;;;5112891;28;20240;-75
2023/08/01 10:19:15;;;;;;;1.80;1.67;;;26.20;99.90;;;;;;5112726;28;20678;-71
2023/08/01 10:21:43;;;;;;;1.63;1.52;;;26.40;99.90;;;;;;5113009;28;20209;-71
2023/08/01 10:24:10;;;;;;;2.80;2.17;;;26.50;99.90;;;;;;5113006;28;20243;-71
2023/08/01 10:26:37;;;;;;;2.08;1.85;;;26.30;99.90;;;;;;5113279;28;20236;-74
2023/08/01 10:29:04;;;;;;;1.70;1.35;;;26.20;99.90;;;;;;5112380;28;20217;-70
2023/08/01 10:31:31;;;;;;;1.75;1.60;;;26.40;99.90;;;;;;5113023;28;20239;-77
2023/08/01 10:34:07;;;;;;;1.55;1.45;;;26.10;99.90;;;;;;5099765;28;20205;-71
2023/08/01 10:36:35;;;;;;;2.65;2.35;;;25.70;99.90;;;;;;5092404;28;20205;-75
2023/08/01 10:39:02;;;;;;;2.05;1.40;;;25.50;99.90;;;;;;5092028;28;21116;-77
2023/08/01 10:41:31;;;;;;;1.83;1.70;;;25.70;99.90;;;;;;5092169;28;20796;-76
2023/08/01 10:44:08;;;;;;;4.18;2.20;;;25.70;99.90;;;;;;5091964;28;20241;-73
2023/08/01 10:46:47;;;;;;;1.67;1.45;;;25.60;99.90;;;;;;5092351;28;20699;-73
2023/08/01 10:49:16;;;;;;;2.20;1.80;;;25.60;99.90;;;;;;5092168;28;20274;-70
2023/08/01 10:51:43;;;;;;;5.32;1.75;;;25.60;99.90;;;;;;5091620;28;20206;-70
2023/08/01 10:54:20;;;;;;;2.83;2.28;;;25.50;99.90;;;;;;5104703;28;20239;-70
2023/08/01 10:56:47;;;;;;;2.30;2.10;;;25.50;99.90;;;;;;5112226;28;20208;-70
2023/08/01 10:59:14;;;;;;;2.42;1.88;;;25.50;99.90;;;;;;5112111;28;20271;-77
2023/08/01 11:01:46;;;;;;;2.50;1.77;;;25.40;99.90;;;;;;5111850;28;20248;-70
2023/08/01 11:04:18;;;;;;;1.38;1.25;;;25.30;99.90;;;;;;5112189;28;20201;-70
2023/08/01 11:06:46;;;;;;;1.65;1.50;;;25.30;99.90;;;;;;5111845;28;20240;-77
2023/08/01 11:09:18;;;;;;;2.95;1.90;;;25.50;99.90;;;;;;5111293;28;20680;-70
2023/08/01 11:11:46;;;;;;;2.47;1.70;;;25.80;99.90;;;;;;5111436;28;20204;-76
2023/08/01 11:14:14;;;;;;;2.58;1.27;;;26.00;99.90;;;;;;5097581;28;20701;-70
2023/08/01 11:16:41;;;;;;;1.48;1.20;;;25.80;99.90;;;;;;5109303;28;20211;-70
2023/08/01 11:19:21;;;;;;;3.25;1.27;;;25.90;99.90;;;;;;5112187;28;20333;-70
2023/08/01 11:21:48;;;;;;;4.28;1.20;;;26.30;99.90;;;;;;5111461;28;20197;-69
2023/08/01 11:24:15;;;;;;;1.85;1.23;;;26.40;99.90;;;;;;5111766;28;20236;-69
2023/08/01 11:26:43;;;;;;;3.92;1.50;;;26.50;99.90;;;;;;5111504;28;20217;-69
2023/08/01 11:29:10;;;;;;;1.65;1.27;;;26.30;99.90;;;;;;5110876;28;20215;-69
2023/08/01 11:31:37;;;;;;;1.65;1.52;;;26.00;99.90;;;;;;5111802;28;20630;-75
2023/08/01 11:34:04;;;;;;;1.60;1.45;;;26.10;99.90;;;;;;5101027;28;20301;-71
2023/08/01 11:36:33;;;;;;;3.08;1.42;;;26.00;99.90;;;;;;5111552;28;20258;-75
2023/08/01 11:39:01;;;;;;;2.50;1.50;;;25.90;99.90;;;;;;5110605;28;20282;-70
2023/08/01 11:41:28;;;;;;;1.80;1.42;;;26.20;99.90;;;;;;5109412;28;20296;-69
2023/08/01 11:43:55;;;;;;;2.20;1.67;;;26.60;99.90;;;;;;5109526;28;20204;-69
2023/08/01 11:46:23;;;;;;;2.53;1.23;;;26.80;99.90;;;;;;5111448;28;20690;-71
2023/08/01 11:48:51;;;;;;;2.33;2.00;;;26.70;99.90;;;;;;5110165;28;20236;-69
2023/08/01 11:51:18;;;;;;;3.58;1.75;;;26.60;99.90;;;;;;5111025;28;20583;-75
2023/08/01 11:53:47;;;;;;;2.13;1.92;;;26.20;99.90;;;;;;5111003;28;20289;-69
2023/08/01 11:56:21;;;;;;;1.77;1.67;;;25.70;99.90;;;;;;5110924;28;20209;-71
2023/08/01 11:58:48;;;;;;;5.05;2.03;;;25.40;99.90;;;;;;5110901;28;20242;-69
2023/08/01 12:01:16;;;;;;;3.22;2.17;;;25.10;99.90;;;;;;5110876;28;20209;-69
2023/08/01 12:03:47;;;;;;;3.22;2.08;;;25.00;99.90;;;;;;5092854;28;20277;-70
2023/08/01 12:06:14;;;;;;;2.63;2.00;;;24.80;99.90;;;;;;5092845;28;20233;-70
2023/08/01 12:08:43;;;;;;;2.22;2.03;;;24.80;99.90;;;;;;5098677;28;20206;-70
2023/08/01 12:11:21;;;;;;;2.30;1.90;;;24.80;99.90;;;;;;5110738;28;20252;-70
2023/08/01 12:13:48;;;;;;;2.80;2.47;;;25.30;99.90;;;;;;5110725;27;20236;-70
2023/08/01 12:16:19;;;;;;;2.35;1.90;;;25.70;99.90;;;;;;5110805;28;20660;-76
2023/08/01 12:18:47;;;;;;;3.92;2.33;;;26.10;99.90;;;;;;5110523;28;20268;-71
2023/08/01 12:21:15;;;;;;;2.70;1.27;;;25.90;99.90;;;;;;5110647;28;20622;-71
2023/08/01 12:23:42;;;;;;;3.08;2.13;;;25.80;99.90;;;;;;5110681;28;20262;-74
2023/08/01 12:26:09;;;;;;;1.88;1.42;;;26.00;99.90;;;;;;5110855;28;20287;-77
2023/08/01 12:28:37;;;;;;;2.50;1.50;;;26.10;99.90;;;;;;5111368;28;20210;-69
2023/08/01 12:31:05;;;;;;;1.60;1.40;;;26.10;99.90;;;;;;5110553;28;20208;-70
2023/08/01 12:33:33;;;;;;;2.30;1.75;;;25.90;99.90;;;;;;5101870;28;20298;-70
2023/08/01 12:36:00;;;;;;;1.50;1.40;;;26.10;99.90;;;;;;5089787;28;20247;-75
2023/08/01 12:38:27;;;;;;;1.67;1.58;;;26.30;99.90;;;;;;5090487;28;20326;-75
2023/08/01 12:40:53;;;;;;;0.93;0.88;;;26.50;99.90;;;;;;5090014;28;20233;-70
2023/08/01 12:43:20;;;;;;;1.55;1.40;;;26.20;99.90;;;;;;5090267;28;20249;-69
2023/08/01 12:45:49;;;;;;;0.80;0.80;;;26.20;99.90;;;;;;5089930;28;20665;-74
2023/08/01 12:48:16;;;;;;;3.25;1.52;;;26.10;99.90;;;;;;5090193;28;20638;-69